Time;durP1;ratioP1;P1;durP2;ratioP2;P2;SDS_P1;SDS_P2;PMS_P1;PMS_P2;Temp;Humidity;BMP_temperature;BMP_pressure;BME280_temperature;BME280_humidity;BME280_pressure;Samples;Min_cycle;Max_cycle;Signal;HPM_P1;HPM_P2
2023/05/05 00:00:52;;;;;;;8.33;7.40;;;;;;;19.37;47.75;97486.44;5035837;28;20454;-69
2023/05/05 00:03:22;;;;;;;10.20;6.37;;;;;;;19.39;47.62;97481.72;5039354;28;20271;-71
2023/05/05 00:05:48;;;;;;;8.23;6.77;;;;;;;19.42;47.60;97483.16;5038404;28;20191;-70
2023/05/05 00:08:13;;;;;;;7.50;6.77;;;;;;;19.38;48.04;97488.06;5046669;28;20441;-71
2023/05/05 00:10:40;;;;;;;8.30;6.70;;;;;;;19.38;48.16;97480.09;5031825;28;20535;-70
2023/05/05 00:13:05;;;;;;;10.73;7.00;;;;;;;19.36;48.47;97482.13;5037652;28;20196;-71
2023/05/05 00:15:30;;;;;;;7.23;6.53;;;;;;;19.27;48.39;97478.03;5046475;28;21069;-70
2023/05/05 00:17:56;;;;;;;7.10;6.33;;;;;;;19.26;48.53;97481.72;5037822;28;20192;-70
2023/05/05 00:20:21;;;;;;;8.43;7.20;;;;;;;19.25;48.62;97477.41;5033800;28;20265;-69
2023/05/05 00:22:47;;;;;;;11.23;8.20;;;;;;;19.23;48.35;97477.59;5036991;28;20268;-70
2023/05/05 00:25:13;;;;;;;8.40;7.17;;;;;;;19.22;48.86;97475.16;5040674;28;20194;-71
2023/05/05 00:27:38;;;;;;;8.13;6.30;;;;;;;19.21;48.54;97471.69;5037867;28;20581;-70
2023/05/05 00:30:04;;;;;;;9.80;6.23;;;;;;;19.19;48.85;97471.88;5032352;28;20269;-71
2023/05/05 00:32:30;;;;;;;9.00;6.70;;;;;;;19.18;48.87;97475.53;5034841;28;20200;-72
2023/05/05 00:34:55;;;;;;;8.40;7.00;;;;;;;19.13;48.98;97483.31;5037037;28;20588;-69
2023/05/05 00:37:21;;;;;;;7.27;5.80;;;;;;;19.12;49.28;97480.84;5034202;28;20859;-71
2023/05/05 00:39:46;;;;;;;9.97;6.27;;;;;;;19.05;49.59;97480.81;5033340;28;20286;-70
2023/05/05 00:42:12;;;;;;;7.50;6.10;;;;;;;19.03;49.34;97477.53;5036910;28;20258;-70
2023/05/05 00:44:41;;;;;;;7.53;6.70;;;;;;;19.00;49.64;97475.31;5041781;28;20201;-71
2023/05/05 00:47:10;;;;;;;6.77;6.17;;;;;;;18.97;49.49;97473.84;5032570;28;20712;-70
2023/05/05 00:49:36;;;;;;;6.90;6.20;;;;;;;18.94;49.80;97484.06;5030485;28;20946;-71
2023/05/05 00:52:01;;;;;;;8.87;6.17;;;;;;;18.93;49.97;97477.06;5037699;28;20450;-71
2023/05/05 00:54:27;;;;;;;7.37;6.70;;;;;;;18.89;50.03;97476.66;5033622;28;20191;-70
2023/05/05 00:56:52;;;;;;;8.43;6.40;;;;;;;18.87;50.03;97474.22;5037049;28;20606;-70
2023/05/05 00:59:18;;;;;;;7.50;6.77;;;;;;;18.88;50.09;97469.72;5031496;28;20953;-71
2023/05/05 01:01:45;;;;;;;9.13;7.03;;;;;;;18.84;49.97;97479.91;5035234;28;20215;-70
2023/05/05 01:04:10;;;;;;;6.90;6.30;;;;;;;18.76;50.09;97477.44;5032319;28;20200;-71
2023/05/05 01:06:59;;;;;;;7.43;6.20;;;;;;;18.73;50.21;97477.81;5037158;28;20439;-70
2023/05/05 01:09:56;;;;;;;8.60;6.13;;;;;;;18.64;50.46;97474.50;5033490;28;20615;-70
2023/05/05 01:12:37;;;;;;;9.63;5.50;;;;;;;18.67;50.30;97474.13;5038329;28;20421;-70
2023/05/05 01:15:37;;;;;;;6.57;5.93;;;;;;;18.66;50.33;97471.66;5040987;28;20440;-70
2023/05/05 01:18:13;;;;;;;7.77;5.70;;;;;;;18.62;50.26;97473.88;5021689;28;20426;-69
2023/05/05 01:20:53;;;;;;;7.20;6.50;;;;;;;18.58;50.23;97473.47;5030280;28;20507;-71
2023/05/05 01:23:56;;;;;;;7.10;6.20;;;;;;;18.56;50.32;97472.03;5005603;28;20443;-70
2023/05/05 01:26:46;;;;;;;9.20;5.90;;;;;;;18.58;50.00;97468.16;5040225;28;20516;-71
2023/05/05 01:29:37;;;;;;;6.30;5.80;;;;;;;18.64;49.50;97471.88;5028342;28;20512;-70
2023/05/05 01:32:12;;;;;;;11.30;7.33;;;;;;;18.66;49.52;97471.66;5036195;28;20529;-71
2023/05/05 01:35:01;;;;;;;11.47;6.97;;;;;;;18.66;49.45;97466.34;5036998;28;21092;-70
2023/05/05 01:37:42;;;;;;;7.47;6.37;;;;;;;18.67;49.75;97460.84;5032353;28;20434;-71
2023/05/05 01:40:09;;;;;;;10.27;6.50;;;;;;;18.62;49.91;97454.50;5033325;28;20469;-72
2023/05/05 01:42:35;;;;;;;6.80;6.10;;;;;;;18.66;49.96;97459.22;5032423;28;20874;-71
2023/05/05 01:45:03;;;;;;;12.47;6.70;;;;;;;18.66;50.07;97456.56;5041809;28;20884;-72
2023/05/05 01:47:30;;;;;;;7.70;6.57;;;;;;;18.63;50.25;97453.50;5035046;28;20491;-72
2023/05/05 01:49:55;;;;;;;7.63;6.50;;;;;;;18.54;50.56;97458.94;5031359;28;20912;-70
2023/05/05 01:52:21;;;;;;;6.40;5.80;;;;;;;18.55;50.56;97459.78;5036633;28;20441;-70
2023/05/05 01:54:47;;;;;;;11.40;6.30;;;;;;;18.56;50.70;97454.28;5032804;28;20192;-70
2023/05/05 01:57:14;;;;;;;10.67;6.40;;;;;;;18.51;50.84;97464.69;5041820;28;20484;-71
2023/05/05 01:59:39;;;;;;;7.03;6.00;;;;;;;18.48;50.94;97465.06;5027144;28;20525;-71
2023/05/05 02:02:06;;;;;;;7.00;6.40;;;;;;;18.51;51.03;97464.69;5034308;28;20943;-71
2023/05/05 02:04:32;;;;;;;6.90;5.93;;;;;;;18.48;50.88;97475.69;5035463;28;20191;-70
2023/05/05 02:06:58;;;;;;;7.60;6.23;;;;;;;18.42;51.36;97477.28;5037596;28;20557;-70
2023/05/05 02:09:25;;;;;;;11.03;6.83;;;;;;;18.40;51.38;97468.69;5034345;28;20497;-70
2023/05/05 02:11:51;;;;;;;8.30;6.43;;;;;;;18.37;51.53;97471.72;5033367;28;20463;-70
2023/05/05 02:14:18;;;;;;;7.03;6.37;;;;;;;18.43;51.22;97478.09;5034114;28;20966;-70
2023/05/05 02:16:44;;;;;;;6.93;6.33;;;;;;;18.43;51.03;97478.09;5029187;28;20517;-70
2023/05/05 02:19:11;;;;;;;8.30;6.77;;;;;;;18.45;51.40;97476.06;5037387;28;20568;-71
2023/05/05 02:21:36;;;;;;;7.10;6.40;;;;;;;18.47;51.04;97473.19;5028377;28;20207;-70
2023/05/05 02:24:02;;;;;;;8.37;6.63;;;;;;;18.50;50.98;97478.97;5056835;28;20440;-70
2023/05/05 02:26:28;;;;;;;7.87;6.50;;;;;;;18.52;50.62;97476.94;5046592;28;20202;-70
2023/05/05 02:28:57;;;;;;;8.70;6.40;;;;;;;18.54;50.87;97479.38;5034835;28;20610;-71
2023/05/05 02:31:25;;;;;;;10.77;6.90;;;;;;;18.47;50.83;97473.19;5044575;28;20577;-72
2023/05/05 02:33:52;;;;;;;9.63;6.37;;;;;;;18.46;51.10;97479.53;5019634;28;20469;-71
2023/05/05 02:36:21;;;;;;;7.20;6.50;;;;;;;18.45;51.22;97486.66;5037367;28;20434;-70
2023/05/05 02:38:50;;;;;;;9.80;5.60;;;;;;;18.41;50.89;97486.25;5028341;28;21030;-72
2023/05/05 02:41:17;;;;;;;6.33;5.77;;;;;;;18.44;50.71;97484.22;5032029;28;21094;-70
2023/05/05 02:43:45;;;;;;;8.30;7.40;;;;;;;18.46;50.52;97488.31;5037986;28;20468;-70
2023/05/05 02:46:10;;;;;;;14.80;9.60;;;;;;;18.47;50.40;97492.59;5014903;28;20435;-70
2023/05/05 02:48:36;;;;;;;6.40;5.80;;;;;;;18.54;50.32;97490.00;5031896;28;20429;-70
2023/05/05 02:51:01;;;;;;;8.13;5.03;;;;;;;18.59;50.08;97495.50;5036726;28;20212;-71
2023/05/05 02:53:27;;;;;;;6.10;4.87;;;;;;;18.62;50.02;97491.66;5043177;28;20278;-69
2023/05/05 02:56:07;;;;;;;8.43;4.67;;;;;;;18.65;49.90;97491.28;5043055;28;20195;-70
2023/05/05 02:58:47;;;;;;;5.17;4.67;;;;;;;18.67;49.94;97494.53;5018470;28;20286;-71
2023/05/05 03:01:17;;;;;;;6.80;4.83;;;;;;;18.70;49.88;97491.50;5040130;28;20457;-70
2023/05/05 03:03:52;;;;;;;5.30;4.80;;;;;;;18.73;49.88;97499.06;5035364;28;20417;-70
2023/05/05 03:06:20;;;;;;;4.90;4.50;;;;;;;18.74;49.65;97495.41;5036882;28;21011;-71
2023/05/05 03:08:57;;;;;;;5.20;4.50;;;;;;;18.75;49.86;97494.38;5031020;28;20414;-70
2023/05/05 03:11:28;;;;;;;11.07;5.13;;;;;;;18.79;49.81;97500.91;5035889;28;20512;-70
2023/05/05 03:14:15;;;;;;;7.27;4.50;;;;;;;18.76;49.81;97498.69;5048825;28;20816;-71
2023/05/05 03:16:42;;;;;;;6.67;4.40;;;;;;;18.77;49.97;97502.97;5049845;28;20465;-70
2023/05/05 03:19:09;;;;;;;4.90;4.50;;;;;;;18.79;49.70;97497.47;5023636;28;20498;-70
2023/05/05 03:21:35;;;;;;;7.10;4.20;;;;;;;18.81;49.75;97501.53;5037180;28;21026;-70
2023/05/05 03:24:14;;;;;;;5.20;4.60;;;;;;;18.79;50.14;97497.47;5042584;28;20516;-70
2023/05/05 03:26:40;;;;;;;4.80;4.30;;;;;;;18.81;50.17;97496.22;5038407;28;20722;-71
2023/05/05 03:29:05;;;;;;;6.77;5.00;;;;;;;18.81;50.42;97488.25;5037255;28;20430;-71
2023/05/05 03:31:31;;;;;;;5.53;4.67;;;;;;;18.80;50.19;97489.28;5037837;28;20247;-70
2023/05/05 03:33:56;;;;;;;4.93;4.30;;;;;;;18.81;50.09;97485.63;5040623;28;20710;-70
2023/05/05 03:36:22;;;;;;;4.97;4.20;;;;;;;18.82;49.96;97481.94;5036960;28;20661;-70
2023/05/05 03:38:47;;;;;;;6.10;4.50;;;;;;;18.85;50.12;97486.88;5039470;28;20865;-70
2023/05/05 03:41:13;;;;;;;5.80;4.50;;;;;;;18.85;50.35;97492.19;5040476;28;20214;-70
2023/05/05 03:43:38;;;;;;;8.97;4.20;;;;;;;18.85;50.30;97494.81;5043908;28;20195;-71
2023/05/05 03:46:04;;;;;;;5.00;4.10;;;;;;;18.85;50.39;97497.47;5035043;28;20238;-72
2023/05/05 03:48:30;;;;;;;5.40;4.30;;;;;;;18.84;50.41;97503.81;5032704;28;20196;-69
2023/05/05 03:50:55;;;;;;;5.87;4.27;;;;;;;18.83;50.41;97504.81;5034305;28;20215;-71
2023/05/05 03:53:21;;;;;;;8.43;4.33;;;;;;;18.87;50.80;97500.75;5050919;28;20441;-70
2023/05/05 03:55:47;;;;;;;15.63;4.73;;;;;;;18.89;50.63;97495.25;5030216;28;20621;-70
2023/05/05 03:58:12;;;;;;;6.87;4.23;;;;;;;18.91;50.85;97492.38;5012276;28;20309;-70
2023/05/05 04:00:38;;;;;;;4.83;4.30;;;;;;;18.91;50.91;97500.34;5021313;28;20211;-70
2023/05/05 04:03:03;;;;;;;6.23;4.30;;;;;;;18.92;51.09;97499.34;5032974;28;20882;-69
2023/05/05 04:05:28;;;;;;;5.10;4.00;;;;;;;18.93;51.03;97499.16;5037121;28;20191;-70
2023/05/05 04:07:54;;;;;;;6.30;5.40;;;;;;;18.96;51.33;97490.81;5031585;28;20191;-69
2023/05/05 04:10:20;;;;;;;7.57;5.80;;;;;;;18.98;51.14;97501.25;5035228;28;20215;-71
2023/05/05 04:12:45;;;;;;;7.20;6.60;;;;;;;18.97;51.31;97499.59;5034720;28;20210;-71
2023/05/05 04:15:11;;;;;;;6.60;5.97;;;;;;;19.00;51.34;97499.22;5034974;28;21004;-70
2023/05/05 04:17:36;;;;;;;6.30;5.20;;;;;;;19.03;51.15;97498.78;5019800;28;20183;-70
2023/05/05 04:20:02;;;;;;;8.50;4.43;;;;;;;19.00;51.35;97499.22;5036466;28;20767;-71
2023/05/05 04:22:27;;;;;;;4.77;4.37;;;;;;;19.03;51.42;97494.31;5042261;28;20563;-69
2023/05/05 04:24:53;;;;;;;5.00;4.60;;;;;;;19.05;51.43;97496.75;5039763;28;20808;-69
2023/05/05 04:27:18;;;;;;;5.10;4.70;;;;;;;19.05;51.79;97502.06;5038098;28;20272;-70
2023/05/05 04:29:44;;;;;;;6.93;4.90;;;;;;;19.06;51.70;97503.72;5041521;28;20183;-70
2023/05/05 04:32:09;;;;;;;5.30;4.80;;;;;;;19.03;51.92;97493.47;5031621;28;20292;-70
2023/05/05 04:34:34;;;;;;;10.90;4.67;;;;;;;19.03;52.08;97496.97;5039297;28;20285;-71
2023/05/05 04:37:00;;;;;;;14.70;4.90;;;;;;;19.07;52.11;97510.66;5032726;28;20250;-71
2023/05/05 04:39:26;;;;;;;7.17;4.20;;;;;;;19.08;52.19;97506.19;5037204;28;20214;-71
2023/05/05 04:41:51;;;;;;;4.33;3.93;;;;;;;19.14;52.11;97514.16;5030966;28;20215;-70
2023/05/05 04:44:16;;;;;;;8.87;4.27;;;;;;;19.14;51.76;97511.50;5033784;28;20195;-70
2023/05/05 04:46:42;;;;;;;4.40;4.10;;;;;;;19.18;52.14;97512.72;5046119;28;20191;-70
2023/05/05 04:49:08;;;;;;;4.80;4.40;;;;;;;19.21;52.49;97516.84;5030658;28;20195;-71
2023/05/05 04:51:33;;;;;;;4.60;4.20;;;;;;;19.23;52.78;97516.63;5037128;28;20206;-71
2023/05/05 04:53:59;;;;;;;5.87;4.80;;;;;;;19.21;52.81;97523.97;5031265;28;20282;-70
2023/05/05 04:56:24;;;;;;;7.83;5.50;;;;;;;19.24;52.80;97526.25;5035823;28;20191;-69
2023/05/05 04:58:50;;;;;;;5.43;4.40;;;;;;;19.24;52.79;97529.72;5032223;28;20211;-70
2023/05/05 05:01:15;;;;;;;5.80;5.00;;;;;;;19.28;52.79;97527.50;5040392;28;20301;-71
2023/05/05 05:03:41;;;;;;;8.30;4.90;;;;;;;19.32;52.80;97526.06;5044217;28;20198;-71
2023/05/05 05:06:06;;;;;;;7.23;5.10;;;;;;;19.36;52.46;97529.97;5030834;28;20354;-71
2023/05/05 05:08:32;;;;;;;5.37;4.97;;;;;;;19.33;52.55;97533.00;5036713;28;20605;-71
2023/05/05 05:10:58;;;;;;;11.57;5.17;;;;;;;19.37;52.74;97544.06;5029248;28;20247;-71
2023/05/05 05:13:23;;;;;;;7.03;4.90;;;;;;;19.43;52.07;97540.59;5035593;28;20213;-70
2023/05/05 05:15:49;;;;;;;14.17;5.37;;;;;;;19.46;52.08;97546.34;5036991;28;21014;-70
2023/05/05 05:18:14;;;;;;;7.43;4.90;;;;;;;19.51;52.13;97548.38;5032720;28;20195;-70
2023/05/05 05:20:40;;;;;;;4.77;4.27;;;;;;;19.56;51.66;97547.78;5037871;28;20298;-71
2023/05/05 05:23:05;;;;;;;5.90;4.63;;;;;;;19.58;51.57;97551.88;5036886;28;20223;-71
2023/05/05 05:25:30;;;;;;;12.80;4.73;;;;;;;19.62;52.12;97546.97;5037752;28;20194;-71
2023/05/05 05:27:56;;;;;;;6.53;4.83;;;;;;;19.67;52.38;97546.38;5035284;28;20190;-71
2023/05/05 05:30:21;;;;;;;6.10;4.13;;;;;;;19.74;52.48;97542.69;5037451;28;20302;-71
2023/05/05 05:32:47;;;;;;;4.60;4.20;;;;;;;19.77;52.56;97547.63;5036611;28;20715;-70
2023/05/05 05:35:12;;;;;;;5.43;4.83;;;;;;;19.86;52.76;97545.59;5033924;28;20183;-70
2023/05/05 05:37:38;;;;;;;8.60;4.83;;;;;;;19.91;52.86;97542.34;5034756;28;20231;-71
2023/05/05 05:40:04;;;;;;;5.17;4.33;;;;;;;20.01;52.17;97552.56;5034958;28;20215;-70
2023/05/05 05:42:30;;;;;;;8.47;4.07;;;;;;;20.08;52.17;97554.19;5037947;28;20644;-71
2023/05/05 05:44:57;;;;;;;7.30;4.57;;;;;;;20.17;52.25;97556.66;5036473;28;20521;-70
2023/05/05 05:47:23;;;;;;;7.13;4.60;;;;;;;20.24;51.95;97552.16;5030464;28;20219;-70
2023/05/05 05:49:48;;;;;;;11.20;4.10;;;;;;;20.37;51.98;97557.47;5031185;28;20418;-69
2023/05/05 05:52:14;;;;;;;3.77;3.37;;;;;;;20.54;51.80;97557.03;5022423;28;20283;-71
2023/05/05 05:54:39;;;;;;;8.50;4.10;;;;;;;20.68;51.88;97560.47;5027103;28;20282;-70
2023/05/05 05:57:05;;;;;;;4.83;3.47;;;;;;;20.76;51.27;97565.59;5032784;28;20683;-71
2023/05/05 05:59:31;;;;;;;4.73;3.53;;;;;;;20.79;50.83;97559.84;5027889;28;20256;-70
2023/05/05 06:01:57;;;;;;;3.70;3.17;;;;;;;20.83;50.32;97565.59;5029791;28;20477;-71
2023/05/05 06:04:23;;;;;;;4.40;3.10;;;;;;;20.87;49.95;97559.63;5034188;28;20429;-71
2023/05/05 06:06:48;;;;;;;3.17;2.83;;;;;;;20.89;49.36;97564.75;5026135;28;20728;-70
2023/05/05 06:09:14;;;;;;;3.53;3.10;;;;;;;20.93;49.46;97563.28;5025015;28;20187;-71
2023/05/05 06:11:39;;;;;;;7.43;3.10;;;;;;;20.98;49.57;97570.69;5027838;28;20235;-70
2023/05/05 06:14:05;;;;;;;4.00;3.13;;;;;;;21.02;49.47;97564.72;5028594;28;20183;-71
2023/05/05 06:16:30;;;;;;;3.87;3.50;;;;;;;21.07;49.47;97573.91;5030552;28;20649;-70
2023/05/05 06:18:55;;;;;;;6.87;2.97;;;;;;;21.08;49.02;97568.38;5026447;28;20688;-72
2023/05/05 06:21:21;;;;;;;6.13;3.40;;;;;;;21.13;49.05;97571.22;5023928;28;20226;-71
2023/05/05 06:23:46;;;;;;;5.00;2.90;;;;;;;21.18;48.92;97573.25;5034407;28;20835;-71
2023/05/05 06:26:12;;;;;;;8.73;2.90;;;;;;;21.21;49.20;97572.81;5010680;28;20261;-72
2023/05/05 06:28:38;;;;;;;5.10;2.67;;;;;;;21.31;48.25;97569.72;5027117;28;20219;-74
2023/05/05 06:31:03;;;;;;;5.60;2.93;;;;;;;21.37;48.28;97568.84;5027083;28;20203;-73
2023/05/05 06:33:29;;;;;;;3.90;2.80;;;;;;;21.50;47.74;97565.31;5028941;28;20279;-72
2023/05/05 06:35:54;;;;;;;9.10;3.20;;;;;;;21.58;47.40;97569.56;5033502;28;20666;-73
2023/05/05 06:38:20;;;;;;;8.37;3.37;;;;;;;21.76;47.34;97569.69;5034675;28;20195;-73
2023/05/05 06:40:48;;;;;;;3.30;3.00;;;;;;;21.88;47.27;97568.97;5029672;28;20211;-73
2023/05/05 06:43:14;;;;;;;5.33;3.30;;;;;;;21.88;47.07;97569.81;5031582;28;20274;-74
2023/05/05 06:45:40;;;;;;;4.97;3.20;;;;;;;22.02;46.63;97575.06;5031101;28;20541;-73
2023/05/05 06:48:05;;;;;;;3.90;2.90;;;;;;;22.10;46.36;97569.44;5035728;28;20274;-73
2023/05/05 06:50:30;;;;;;;6.13;2.77;;;;;;;22.19;46.21;97575.31;5032770;28;20203;-74
2023/05/05 06:52:56;;;;;;;10.07;2.97;;;;;;;22.23;46.13;97569.31;5027713;28;20575;-73
2023/05/05 06:55:22;;;;;;;2.80;2.60;;;;;;;22.28;46.30;97575.88;5026722;28;20186;-73
2023/05/05 06:57:47;;;;;;;5.57;2.83;;;;;;;22.32;46.16;97577.06;5028137;28;20192;-74
2023/05/05 07:00:14;;;;;;;5.27;2.90;;;;;;;22.36;45.85;97575.59;5028311;28;21452;-74
2023/05/05 07:02:40;;;;;;;5.30;2.83;;;;;;;22.33;45.59;97579.53;5030222;28;20198;-73
2023/05/05 07:05:05;;;;;;;4.23;2.90;;;;;;;22.28;45.46;97586.56;5028306;28;20430;-74
2023/05/05 07:07:31;;;;;;;7.47;3.57;;;;;;;22.34;45.66;97585.66;5026945;28;20551;-73
2023/05/05 07:09:56;;;;;;;14.30;3.40;;;;;;;22.30;45.57;97589.81;5028684;28;20227;-73
2023/05/05 07:12:22;;;;;;;5.60;2.70;;;;;;;22.29;45.66;97594.34;5035570;28;20750;-73
2023/05/05 07:14:47;;;;;;;3.97;3.00;;;;;;;22.31;45.82;97592.25;5036074;28;20869;-74
2023/05/05 07:17:13;;;;;;;5.47;2.77;;;;;;;22.31;45.63;97592.25;5038100;28;20203;-74
2023/05/05 07:19:38;;;;;;;3.00;2.70;;;;;;;22.34;45.68;97593.66;5032870;28;20309;-73
2023/05/05 07:22:04;;;;;;;4.67;2.90;;;;;;;22.36;45.70;97588.94;5034517;28;20238;-75
2023/05/05 07:24:29;;;;;;;5.70;2.90;;;;;;;22.40;45.85;97590.94;5036243;28;20210;-75
2023/05/05 07:26:55;;;;;;;6.93;2.80;;;;;;;22.39;45.83;97600.00;5032139;28;20246;-74
2023/05/05 07:29:20;;;;;;;3.33;2.40;;;;;;;22.39;45.91;97600.00;5034040;28;20712;-73
2023/05/05 07:31:46;;;;;;;5.67;2.80;;;;;;;22.36;45.86;97600.44;5031620;28;20219;-75
2023/05/05 07:34:11;;;;;;;4.97;2.70;;;;;;;22.35;45.83;97603.31;5023823;28;20200;-74
2023/05/05 07:36:36;;;;;;;2.93;2.70;;;;;;;22.35;45.76;97603.31;5021712;28;20188;-75
2023/05/05 07:39:02;;;;;;;6.83;2.60;;;;;;;22.35;45.71;97603.31;5028150;28;20204;-74
2023/05/05 07:41:27;;;;;;;3.40;2.80;;;;;;;22.36;45.95;97604.94;5022097;28;20203;-73
2023/05/05 07:43:53;;;;;;;3.43;3.13;;;;;;;22.34;46.12;97602.50;5031140;28;20241;-74
2023/05/05 07:46:18;;;;;;;3.53;2.90;;;;;;;22.35;46.03;97614.84;5033162;28;20270;-72
2023/05/05 07:48:44;;;;;;;3.87;2.70;;;;;;;22.31;46.72;97613.63;5040189;28;20175;-72
2023/05/05 07:51:09;;;;;;;3.90;2.87;;;;;;;22.30;46.77;97611.97;5031001;28;20218;-73
2023/05/05 07:53:35;;;;;;;5.57;3.23;;;;;;;22.22;46.56;97618.41;5032161;28;20195;-71
2023/05/05 07:56:01;;;;;;;3.37;2.87;;;;;;;22.20;46.75;97615.13;5031166;28;20712;-72
2023/05/05 07:58:26;;;;;;;4.87;2.67;;;;;;;22.18;47.21;97619.88;5034334;28;20512;-72
2023/05/05 08:00:52;;;;;;;8.83;3.17;;;;;;;22.09;47.72;97622.00;5040449;28;20221;-72
2023/05/05 08:03:20;;;;;;;4.23;2.93;;;;;;;22.07;48.08;97625.91;5030691;28;20278;-72
2023/05/05 08:05:45;;;;;;;5.33;2.77;;;;;;;22.03;48.96;97622.06;5031522;28;21027;-73
2023/05/05 08:08:11;;;;;;;5.70;2.40;;;;;;;22.03;48.36;97622.06;5031481;28;20494;-73
2023/05/05 08:10:36;;;;;;;7.60;2.90;;;;;;;22.02;48.37;97620.41;5031362;28;20199;-72
2023/05/05 08:13:02;;;;;;;4.53;3.37;;;;;;;22.01;48.57;97614.25;5027190;28;20183;-72
2023/05/05 08:15:27;;;;;;;4.27;3.00;;;;;;;21.90;49.86;97618.44;5030797;28;20176;-72
2023/05/05 08:17:54;;;;;;;4.13;3.00;;;;;;;21.85;50.25;97617.44;5029280;28;20580;-70
2023/05/05 08:20:21;;;;;;;7.50;3.20;;;;;;;21.78;51.15;97618.28;5032600;28;20229;-71
2023/05/05 08:22:46;;;;;;;3.40;3.03;;;;;;;21.71;51.13;97628.19;5032326;28;20489;-71
2023/05/05 08:25:12;;;;;;;5.90;3.10;;;;;;;21.70;51.25;97629.22;5034486;28;20790;-71
2023/05/05 08:27:39;;;;;;;6.63;3.10;;;;;;;21.59;51.63;97633.38;5033086;28;20266;-71
2023/05/05 08:30:06;;;;;;;3.77;3.40;;;;;;;21.59;51.81;97635.22;5029100;28;20411;-73
2023/05/05 08:32:31;;;;;;;7.13;3.60;;;;;;;21.58;52.09;97634.38;5029522;28;20434;-71
2023/05/05 08:34:57;;;;;;;7.80;4.40;;;;;;;21.56;52.43;97630.28;5030700;28;20423;-71
2023/05/05 08:37:22;;;;;;;4.93;2.90;;;;;;;21.57;52.51;97629.25;5028943;28;20612;-71
2023/05/05 08:39:48;;;;;;;5.27;3.40;;;;;;;21.62;52.33;97632.97;5028351;28;20206;-72
2023/05/05 08:42:13;;;;;;;5.47;3.33;;;;;;;21.65;52.65;97631.69;5027173;28;20207;-72
2023/05/05 08:44:39;;;;;;;4.37;3.20;;;;;;;21.57;52.55;97627.41;5031513;28;20234;-72
2023/05/05 08:47:05;;;;;;;11.50;3.30;;;;;;;21.62;52.66;97637.47;5029744;28;20179;-71
2023/05/05 08:49:34;;;;;;;9.40;4.30;;;;;;;21.67;52.42;97628.84;5026275;28;20172;-71
2023/05/05 08:52:00;;;;;;;3.73;3.07;;;;;;;21.57;52.52;97632.72;5025502;28;20199;-70
2023/05/05 08:54:26;;;;;;;10.47;3.37;;;;;;;21.64;52.62;97627.41;5032659;28;20415;-71
2023/05/05 08:56:52;;;;;;;3.97;2.73;;;;;;;21.67;53.08;97634.19;5025911;28;20923;-71
2023/05/05 08:59:19;;;;;;;9.43;2.97;;;;;;;21.68;53.18;97625.13;5019851;28;20828;-71
2023/05/05 09:01:45;;;;;;;6.60;2.97;;;;;;;21.33;53.69;97632.44;5027467;28;20862;-71
2023/05/05 09:04:11;;;;;;;3.13;2.90;;;;;;;21.54;53.62;97630.53;5020653;28;20489;-72
2023/05/05 09:06:36;;;;;;;4.80;3.17;;;;;;;21.53;53.38;97628.03;5030230;28;20423;-70
2023/05/05 09:09:02;;;;;;;7.40;3.33;;;;;;;21.58;53.71;97626.38;5027455;28;20179;-70
2023/05/05 09:11:27;;;;;;;7.23;4.00;;;;;;;21.70;53.14;97628.41;5036603;28;20206;-71
2023/05/05 09:13:54;;;;;;;6.37;3.47;;;;;;;21.77;53.44;97630.00;5028758;28;20181;-71
2023/05/05 09:16:20;;;;;;;7.03;3.47;;;;;;;21.80;52.84;97634.06;5033026;28;20235;-73
2023/05/05 09:18:46;;;;;;;3.50;3.20;;;;;;;21.86;53.10;97624.44;5023564;28;20450;-72
2023/05/05 09:21:21;;;;;;;4.63;3.27;;;;;;;22.06;52.65;97625.09;5026118;28;20450;-73
2023/05/05 09:24:14;;;;;;;4.30;3.90;;;;;;;22.06;51.46;97621.59;5031491;28;20197;-70
2023/05/05 09:26:46;;;;;;;3.93;3.30;;;;;;;22.14;51.42;97613.34;5033821;28;20426;-70
2023/05/05 09:29:19;;;;;;;3.80;3.50;;;;;;;22.30;51.19;97611.19;5020075;28;20421;-72
2023/05/05 09:32:07;;;;;;;5.90;3.53;;;;;;;22.41;50.51;97613.16;5039136;28;20449;-71
2023/05/05 09:34:34;;;;;;;3.50;2.87;;;;;;;22.40;50.10;97606.16;5040341;28;20406;-72
2023/05/05 09:36:59;;;;;;;5.67;3.30;;;;;;;22.40;50.33;97601.63;5044345;28;20434;-71
2023/05/05 09:39:25;;;;;;;4.57;3.33;;;;;;;22.48;49.82;97603.22;5036029;28;20468;-72
2023/05/05 09:41:50;;;;;;;3.07;2.80;;;;;;;22.75;49.22;97608.31;5030649;28;20199;-72
2023/05/05 09:44:32;;;;;;;7.03;3.20;;;;;;;23.15;48.64;97609.72;5037492;28;20255;-70
2023/05/05 09:46:57;;;;;;;3.40;3.10;;;;;;;23.30;48.27;97604.84;5031338;28;20175;-71
2023/05/05 09:49:25;;;;;;;5.13;3.00;;;;;;;23.41;47.22;97603.28;5044458;28;20454;-71
2023/05/05 09:51:51;;;;;;;3.37;2.97;;;;;;;23.60;46.83;97600.56;5041606;28;20211;-70
2023/05/05 09:54:24;;;;;;;6.67;3.23;;;;;;;23.76;46.65;97599.09;5041648;28;20437;-69
2023/05/05 09:56:51;;;;;;;3.40;3.10;;;;;;;23.92;45.79;97598.47;5030017;28;20468;-69
2023/05/05 09:59:17;;;;;;;3.03;2.70;;;;;;;23.99;45.45;97587.69;5031030;28;20508;-70
2023/05/05 10:01:42;;;;;;;9.80;2.67;;;;;;;24.15;45.49;97586.19;5046810;28;20444;-69
2023/05/05 10:04:28;;;;;;;5.03;2.70;;;;;;;24.19;45.68;97586.56;5031403;28;20935;-70
2023/05/05 10:06:55;;;;;;;2.93;2.73;;;;;;;24.17;44.13;97586.78;5037059;28;20186;-71
2023/05/05 10:09:21;;;;;;;3.53;2.10;;;;;;;24.21;43.39;97587.13;5030104;28;20433;-69
2023/05/05 10:11:47;;;;;;;2.33;1.87;;;;;;;24.23;42.77;97588.53;5034888;28;20881;-70
2023/05/05 10:14:16;;;;;;;6.17;2.40;;;;;;;24.30;42.57;97588.44;5015865;28;20486;-71
2023/05/05 10:16:49;;;;;;;2.40;1.80;;;;;;;24.28;42.68;97585.16;5027571;28;20176;-71
2023/05/05 10:19:16;;;;;;;2.10;1.90;;;;;;;24.19;42.29;97578.53;5028517;28;20462;-72
2023/05/05 10:21:52;;;;;;;2.20;1.50;;;;;;;24.13;42.62;97582.13;5031035;28;20445;-70
2023/05/05 10:24:23;;;;;;;2.83;1.90;;;;;;;24.08;42.58;97572.91;5028865;28;20422;-70
2023/05/05 10:26:48;;;;;;;3.40;1.80;;;;;;;24.06;42.77;97575.03;5016499;28;20506;-70
2023/05/05 10:29:27;;;;;;;10.33;2.60;;;;;;;24.05;42.81;97576.06;5022114;28;20541;-70
2023/05/05 10:31:53;;;;;;;5.20;2.07;;;;;;;24.08;43.08;97574.78;5027152;28;20231;-70
2023/05/05 10:34:39;;;;;;;3.27;1.97;;;;;;;24.05;42.66;97577.91;5030887;28;20620;-70
2023/05/05 10:37:05;;;;;;;1.90;1.80;;;;;;;24.02;42.15;97579.19;5026844;28;20553;-69
2023/05/05 10:39:31;;;;;;;5.13;2.03;;;;;;;23.98;42.32;97575.34;5028341;28;20932;-69
2023/05/05 10:42:00;;;;;;;6.23;2.00;;;;;;;23.89;42.62;97571.34;5027908;28;20278;-69
2023/05/05 10:44:28;;;;;;;1.90;1.80;;;;;;;23.82;44.02;97560.75;5035191;28;20207;-70
2023/05/05 10:46:54;;;;;;;3.67;2.13;;;;;;;23.74;43.23;97577.13;5027079;28;20510;-68
2023/05/05 10:49:50;;;;;;;9.20;2.03;;;;;;;23.69;43.02;97564.41;5009553;28;20505;-68
2023/05/05 10:52:34;;;;;;;2.80;1.80;;;;;;;23.65;43.47;97560.59;5024319;28;20272;-70
2023/05/05 10:55:14;;;;;;;4.67;1.80;;;;;;;23.60;43.32;97544.38;5028285;28;20430;-70
2023/05/05 10:57:42;;;;;;;5.13;2.20;;;;;;;23.63;43.07;97538.59;5036285;28;20512;-70
2023/05/05 11:00:08;;;;;;;2.23;1.77;;;;;;;23.61;43.30;97535.31;5025804;28;21027;-68
2023/05/05 11:02:35;;;;;;;4.90;2.20;;;;;;;23.56;44.69;97540.56;5028974;28;20502;-69
2023/05/05 11:05:16;;;;;;;4.27;2.23;;;;;;;23.51;46.82;97535.06;5027959;28;20426;-68
2023/05/05 11:07:43;;;;;;;9.20;2.83;;;;;;;23.50;47.06;97538.78;5028102;28;20493;-69
2023/05/05 11:10:10;;;;;;;4.40;2.53;;;;;;;23.55;46.94;97533.56;5026975;28;20430;-67
2023/05/05 11:12:50;;;;;;;5.70;2.50;;;;;;;23.57;47.31;97529.63;5026403;28;20430;-71
2023/05/05 11:15:25;;;;;;;4.20;2.33;;;;;;;23.62;47.10;97526.25;5031170;28;20999;-70
2023/05/05 11:17:51;;;;;;;2.20;2.00;;;;;;;23.69;47.43;97520.81;5028708;28;20421;-69
2023/05/05 11:20:17;;;;;;;3.90;1.90;;;;;;;23.81;46.55;97520.84;5029659;28;20462;-70
2023/05/05 11:23:01;;;;;;;8.17;2.17;;;;;;;23.96;46.73;97515.88;5035195;28;20426;-68
2023/05/05 11:28:24;;;;;;;2.70;2.00;;;;;;;24.37;45.04;97511.47;5038610;28;21043;-69
2023/05/05 11:30:55;;;;;;;4.50;2.20;;;;;;;24.68;45.21;97514.81;5037073;28;20534;-69
2023/05/05 11:33:25;;;;;;;2.30;1.90;;;;;;;24.96;44.40;97512.44;5040433;28;21160;-70
2023/05/05 11:36:03;;;;;;;3.10;2.13;;;;;;;25.25;43.50;97510.56;5039063;28;20467;-70
2023/05/05 11:38:35;;;;;;;3.37;1.90;;;;;;;25.49;42.31;97507.00;5038883;28;20409;-69